Time;durP1;ratioP1;P1;durP2;ratioP2;P2;SDS_P1;SDS_P2;PMS_P1;PMS_P2;Temp;Humidity;BMP_temperature;BMP_pressure;BME280_temperature;BME280_humidity;BME280_pressure;Samples;Min_cycle;Max_cycle;Signal;HPM_P1;HPM_P2
2021/06/29 00:01:55;;;;;;;3.55;2.10;;;;;;;;;;5031609;28;20113;-68
2021/06/29 00:04:20;;;;;;;4.15;2.13;;;;;;;;;;5032721;28;20045;-68
2021/06/29 00:06:46;;;;;;;2.70;1.75;;;;;;;;;;5030976;28;20240;-68
2021/06/29 00:09:12;;;;;;;3.47;2.13;;;;;;;;;;5031050;28;20079;-68
2021/06/29 00:11:37;;;;;;;3.70;2.20;;;;;;;;;;5017169;28;20034;-68
2021/06/29 00:14:03;;;;;;;4.80;2.35;;;;;;;;;;5033148;28;20038;-68
2021/06/29 00:16:28;;;;;;;3.00;2.40;;;;;;;;;;5032736;28;20463;-68
2021/06/29 00:18:54;;;;;;;3.75;2.03;;;;;;;;;;5031624;28;20034;-68
2021/06/29 00:21:20;;;;;;;4.40;2.60;;;;;;;;;;5018828;28;20516;-68
2021/06/29 00:23:46;;;;;;;2.92;2.22;;;;;;;;;;5032545;28;20049;-68
2021/06/29 00:26:12;;;;;;;3.40;2.05;;;;;;;;;;5030607;28;20032;-68
2021/06/29 00:28:38;;;;;;;3.78;2.03;;;;;;;;;;5031582;28;20034;-68
2021/06/29 00:31:03;;;;;;;3.35;2.00;;;;;;;;;;5023418;28;20032;-68
2021/06/29 00:33:29;;;;;;;2.35;1.60;;;;;;;;;;5031241;28;20041;-67
2021/06/29 00:35:54;;;;;;;3.72;1.73;;;;;;;;;;5032930;28;20387;-67
2021/06/29 00:38:20;;;;;;;3.15;1.88;;;;;;;;;;5014569;28;20152;-68
2021/06/29 00:40:45;;;;;;;3.80;1.92;;;;;;;;;;5032607;28;20086;-68
2021/06/29 00:43:10;;;;;;;3.80;1.92;;;;;;;;;;5030581;28;20046;-68
2021/06/29 00:45:36;;;;;;;3.97;1.88;;;;;;;;;;5030973;28;20030;-68
2021/06/29 00:48:02;;;;;;;5.40;2.40;;;;;;;;;;5029009;28;20081;-68
2021/06/29 00:50:27;;;;;;;4.82;2.40;;;;;;;;;;5032166;28;21157;-68
2021/06/29 00:52:52;;;;;;;4.25;2.28;;;;;;;;;;5019111;28;20462;-68
2021/06/29 00:55:18;;;;;;;3.38;1.90;;;;;;;;;;5001505;28;20112;-68
2021/06/29 00:57:44;;;;;;;5.05;2.50;;;;;;;;;;5030786;28;20038;-68
2021/06/29 01:00:10;;;;;;;4.75;2.30;;;;;;;;;;5016123;28;20446;-68
2021/06/29 01:02:36;;;;;;;5.53;2.22;;;;;;;;;;5017540;28;20030;-68
2021/06/29 01:05:05;;;;;;;7.15;2.25;;;;;;;;;;5032644;28;20545;-68
2021/06/29 01:07:30;;;;;;;3.92;2.08;;;;;;;;;;5031103;28;20481;-68
2021/06/29 01:09:56;;;;;;;4.22;2.10;;;;;;;;;;5031174;28;20351;-68
2021/06/29 01:12:21;;;;;;;4.53;2.35;;;;;;;;;;5030856;28;20037;-68
2021/06/29 01:14:47;;;;;;;4.30;2.40;;;;;;;;;;5014930;28;20710;-68
2021/06/29 01:17:12;;;;;;;4.40;1.92;;;;;;;;;;4999846;28;20716;-68
2021/06/29 01:22:05;;;;;;;6.38;2.08;;;;;;;;;;5031275;28;20033;-68
2021/06/29 01:24:31;;;;;;;2.85;1.88;;;;;;;;;;5030433;28;20561;-68
2021/06/29 01:27:11;;;;;;;4.22;2.00;;;;;;;;;;5030272;28;20041;-68
2021/06/29 01:32:11;;;;;;;2.40;1.83;;;;;;;;;;5030805;28;21118;-68
2021/06/29 01:34:36;;;;;;;3.78;1.90;;;;;;;;;;5029543;28;20042;-69
2021/06/29 01:37:01;;;;;;;4.00;2.00;;;;;;;;;;5029999;28;20587;-68
2021/06/29 01:39:27;;;;;;;4.68;2.05;;;;;;;;;;5030069;28;20040;-68
2021/06/29 01:41:52;;;;;;;7.40;2.30;;;;;;;;;;5030377;28;20789;-68
2021/06/29 01:44:24;;;;;;;3.85;2.10;;;;;;;;;;5030287;28;20042;-68
2021/06/29 01:46:52;;;;;;;4.70;2.13;;;;;;;;;;5028386;28;20038;-68
2021/06/29 01:49:26;;;;;;;2.97;2.22;;;;;;;;;;5031747;28;20470;-68
2021/06/29 01:51:52;;;;;;;6.15;2.28;;;;;;;;;;5016533;28;20122;-67
2021/06/29 01:54:18;;;;;;;5.65;2.30;;;;;;;;;;5029618;28;20064;-67
2021/06/29 01:56:45;;;;;;;5.07;2.58;;;;;;;;;;5030077;28;20128;-68
2021/06/29 01:59:13;;;;;;;5.65;2.38;;;;;;;;;;5029730;28;20040;-67
2021/06/29 02:01:39;;;;;;;2.88;2.30;;;;;;;;;;5029545;28;20029;-67
2021/06/29 02:04:05;;;;;;;3.67;2.17;;;;;;;;;;5031164;28;20111;-67
2021/06/29 02:06:30;;;;;;;4.25;2.17;;;;;;;;;;5031341;28;20048;-67
2021/06/29 02:08:56;;;;;;;4.30;2.08;;;;;;;;;;5021183;28;20040;-67
2021/06/29 02:11:22;;;;;;;3.63;2.20;;;;;;;;;;5031025;28;20499;-67
2021/06/29 02:13:47;;;;;;;4.63;2.42;;;;;;;;;;5021557;28;20045;-67
2021/06/29 02:16:12;;;;;;;3.17;2.13;;;;;;;;;;5017324;28;20054;-67
2021/06/29 02:18:38;;;;;;;3.60;2.15;;;;;;;;;;5029900;28;20120;-67
2021/06/29 02:21:05;;;;;;;3.90;2.20;;;;;;;;;;5029809;28;20113;-67
2021/06/29 02:23:31;;;;;;;2.17;1.92;;;;;;;;;;5029583;28;20487;-68
2021/06/29 02:25:57;;;;;;;3.47;2.20;;;;;;;;;;5030023;28;20046;-67
2021/06/29 02:28:22;;;;;;;4.50;2.08;;;;;;;;;;5029094;28;20329;-67
2021/06/29 02:30:48;;;;;;;3.10;2.13;;;;;;;;;;5016160;28;20038;-67
2021/06/29 02:33:13;;;;;;;4.15;2.10;;;;;;;;;;5031383;28;20033;-67
2021/06/29 02:35:38;;;;;;;4.75;2.30;;;;;;;;;;4999405;28;20682;-67
2021/06/29 02:38:04;;;;;;;4.38;2.50;;;;;;;;;;5029175;28;20038;-67
2021/06/29 02:40:30;;;;;;;3.42;1.98;;;;;;;;;;5019268;28;20041;-67
2021/06/29 02:42:55;;;;;;;3.50;2.00;;;;;;;;;;5030695;28;20438;-67
2021/06/29 02:45:21;;;;;;;2.72;2.10;;;;;;;;;;5014127;28;20510;-68
2021/06/29 02:47:49;;;;;;;3.25;2.22;;;;;;;;;;5030337;28;20121;-67
2021/06/29 02:50:16;;;;;;;4.20;2.15;;;;;;;;;;5015124;28;20030;-66
2021/06/29 02:52:41;;;;;;;2.72;1.80;;;;;;;;;;5030401;28;20064;-67
2021/06/29 02:55:09;;;;;;;4.15;2.10;;;;;;;;;;5029399;28;20052;-68
2021/06/29 02:57:34;;;;;;;3.65;1.90;;;;;;;;;;5044231;28;20033;-67
2021/06/29 03:00:00;;;;;;;5.05;2.13;;;;;;;;;;5046423;28;20042;-67
2021/06/29 03:02:25;;;;;;;4.00;1.80;;;;;;;;;;5011819;28;20041;-67
2021/06/29 03:04:51;;;;;;;2.45;1.80;;;;;;;;;;5019793;28;20104;-67
2021/06/29 03:07:17;;;;;;;1.85;1.50;;;;;;;;;;5009849;28;20685;-67
2021/06/29 03:09:42;;;;;;;3.20;1.80;;;;;;;;;;5045007;28;20062;-67
2021/06/29 03:12:09;;;;;;;2.00;1.80;;;;;;;;;;5029369;28;20600;-67
2021/06/29 03:14:36;;;;;;;3.33;1.77;;;;;;;;;;5027808;28;20034;-67
2021/06/29 03:17:03;;;;;;;2.60;1.70;;;;;;;;;;5044505;28;20025;-67
2021/06/29 03:19:30;;;;;;;2.17;1.98;;;;;;;;;;5030893;28;20096;-67
2021/06/29 03:21:56;;;;;;;2.63;1.80;;;;;;;;;;5014572;28;20057;-67
2021/06/29 03:24:21;;;;;;;2.15;1.90;;;;;;;;;;5030233;28;20394;-67
2021/06/29 03:26:46;;;;;;;3.95;1.75;;;;;;;;;;5030033;28;20960;-67
2021/06/29 03:29:12;;;;;;;2.85;1.95;;;;;;;;;;5029178;28;20466;-67
2021/06/29 03:31:37;;;;;;;2.47;1.70;;;;;;;;;;5028832;28;20827;-67
2021/06/29 03:34:03;;;;;;;2.67;1.90;;;;;;;;;;5002889;28;20044;-67
2021/06/29 03:36:30;;;;;;;3.90;2.00;;;;;;;;;;5029106;28;20041;-67
2021/06/29 03:38:55;;;;;;;2.28;1.70;;;;;;;;;;5028874;28;20089;-67
2021/06/29 03:41:21;;;;;;;3.70;1.88;;;;;;;;;;5000325;28;20505;-67
2021/06/29 03:43:46;;;;;;;3.35;1.70;;;;;;;;;;5034048;28;20022;-67
2021/06/29 03:46:11;;;;;;;3.10;1.85;;;;;;;;;;5047508;28;20433;-67
2021/06/29 03:48:37;;;;;;;3.67;1.80;;;;;;;;;;5020183;28;20025;-67
2021/06/29 03:51:03;;;;;;;2.88;1.67;;;;;;;;;;5032817;28;20895;-67
2021/06/29 03:53:28;;;;;;;3.53;2.10;;;;;;;;;;5016594;28;20068;-67
2021/06/29 03:55:54;;;;;;;2.17;1.80;;;;;;;;;;5046777;28;20045;-67
2021/06/29 03:58:19;;;;;;;3.70;2.03;;;;;;;;;;5032317;28;20509;-67
2021/06/29 04:00:45;;;;;;;2.58;1.70;;;;;;;;;;5020708;28;20096;-67
2021/06/29 04:03:11;;;;;;;2.25;1.45;;;;;;;;;;5032296;28;20038;-67
2021/06/29 04:05:37;;;;;;;2.13;1.50;;;;;;;;;;5031888;28;20542;-67
2021/06/29 04:08:03;;;;;;;2.92;1.70;;;;;;;;;;5029012;28;20028;-67
2021/06/29 04:10:29;;;;;;;3.35;1.50;;;;;;;;;;5015799;28;20080;-67
2021/06/29 04:12:54;;;;;;;1.75;1.60;;;;;;;;;;5032917;28;20038;-67
2021/06/29 04:15:19;;;;;;;3.75;1.95;;;;;;;;;;5032268;28;20119;-67
2021/06/29 04:17:45;;;;;;;1.92;1.40;;;;;;;;;;5031543;28;20046;-67
2021/06/29 04:20:11;;;;;;;2.15;1.70;;;;;;;;;;5028520;28;20060;-67
2021/06/29 04:22:37;;;;;;;2.10;1.65;;;;;;;;;;5048225;28;21093;-67
2021/06/29 04:25:06;;;;;;;2.42;1.70;;;;;;;;;;4998903;28;20092;-67
2021/06/29 04:27:32;;;;;;;2.03;1.70;;;;;;;;;;5028665;28;20084;-67
2021/06/29 04:29:57;;;;;;;1.75;1.60;;;;;;;;;;5032229;28;20069;-67
2021/06/29 04:32:23;;;;;;;1.83;1.45;;;;;;;;;;5031090;28;20553;-67
2021/06/29 04:34:49;;;;;;;1.98;1.60;;;;;;;;;;5015792;28;20040;-67
2021/06/29 04:37:14;;;;;;;3.65;1.60;;;;;;;;;;5016290;28;20052;-67
2021/06/29 04:39:39;;;;;;;2.25;1.80;;;;;;;;;;5020842;28;20061;-67
2021/06/29 04:42:05;;;;;;;2.22;1.52;;;;;;;;;;5031006;28;20040;-66
2021/06/29 04:44:31;;;;;;;1.67;1.50;;;;;;;;;;5017291;28;20041;-67
2021/06/29 04:46:57;;;;;;;2.05;1.67;;;;;;;;;;5030423;28;20036;-67
2021/06/29 04:49:26;;;;;;;2.17;1.70;;;;;;;;;;5047452;28;20034;-67
2021/06/29 04:51:52;;;;;;;3.50;1.73;;;;;;;;;;5030910;28;20079;-67
2021/06/29 04:54:17;;;;;;;2.78;1.65;;;;;;;;;;5029429;28;20596;-67
2021/06/29 04:56:43;;;;;;;2.20;1.73;;;;;;;;;;5033536;28;20037;-67
2021/06/29 04:59:08;;;;;;;3.30;1.55;;;;;;;;;;5046819;28;20501;-68
2021/06/29 05:01:34;;;;;;;2.80;1.80;;;;;;;;;;5029858;28;20025;-67
2021/06/29 05:03:59;;;;;;;1.88;1.75;;;;;;;;;;5045089;28;20068;-67
2021/06/29 05:06:25;;;;;;;2.03;1.50;;;;;;;;;;5032631;28;20537;-68
2021/06/29 05:08:50;;;;;;;3.50;1.60;;;;;;;;;;5018987;28;20188;-69
2021/06/29 05:11:15;;;;;;;2.28;1.65;;;;;;;;;;5032289;28;20046;-67
2021/06/29 05:13:41;;;;;;;1.90;1.70;;;;;;;;;;5015130;28;20034;-67
2021/06/29 05:16:07;;;;;;;1.90;1.65;;;;;;;;;;5032621;28;20080;-68
2021/06/29 05:18:33;;;;;;;2.75;1.90;;;;;;;;;;5030848;28;20034;-68
2021/06/29 05:20:58;;;;;;;1.95;1.63;;;;;;;;;;5023657;28;20073;-68
2021/06/29 05:23:24;;;;;;;2.70;1.70;;;;;;;;;;5031081;28;20366;-67
2021/06/29 05:25:49;;;;;;;4.18;1.73;;;;;;;;;;5032722;28;20140;-68
2021/06/29 05:28:19;;;;;;;3.03;2.22;;;;;;;;;;5033122;28;20037;-68
2021/06/29 05:30:45;;;;;;;1.88;1.77;;;;;;;;;;5007228;28;20037;-68
2021/06/29 05:33:11;;;;;;;2.15;1.60;;;;;;;;;;5046084;28;20066;-68
2021/06/29 05:35:37;;;;;;;3.25;1.77;;;;;;;;;;5016078;28;20077;-68
2021/06/29 05:38:02;;;;;;;2.20;1.80;;;;;;;;;;5032863;28;20029;-68
2021/06/29 05:40:28;;;;;;;2.95;2.00;;;;;;;;;;5024309;28;20517;-68
2021/06/29 05:42:54;;;;;;;2.03;1.67;;;;;;;;;;5031752;28;20581;-68
2021/06/29 05:45:19;;;;;;;3.17;1.80;;;;;;;;;;5019261;28;20042;-68
2021/06/29 05:47:46;;;;;;;2.88;1.95;;;;;;;;;;5031901;28;20041;-68
2021/06/29 05:50:13;;;;;;;2.08;1.90;;;;;;;;;;5045858;28;20125;-68
2021/06/29 05:52:40;;;;;;;1.90;1.80;;;;;;;;;;5045252;28;20091;-68
2021/06/29 05:55:07;;;;;;;2.63;1.80;;;;;;;;;;5031983;28;20052;-68
2021/06/29 05:57:32;;;;;;;1.98;1.77;;;;;;;;;;5015595;28;20057;-68
2021/06/29 05:59:58;;;;;;;2.20;2.00;;;;;;;;;;5045512;28;20038;-68
2021/06/29 06:02:24;;;;;;;2.03;1.83;;;;;;;;;;5030074;28;20048;-68
2021/06/29 06:04:49;;;;;;;2.10;1.90;;;;;;;;;;5030022;28;20121;-68
2021/06/29 06:07:15;;;;;;;3.40;2.10;;;;;;;;;;5031051;28;20076;-68
2021/06/29 06:09:40;;;;;;;1.90;1.75;;;;;;;;;;5030258;28;20095;-67
2021/06/29 06:12:06;;;;;;;3.22;2.00;;;;;;;;;;5030705;28;20036;-68
2021/06/29 06:14:32;;;;;;;2.75;2.00;;;;;;;;;;5030119;28;20029;-68
2021/06/29 06:16:57;;;;;;;4.60;2.00;;;;;;;;;;5029612;28;22605;-69
2021/06/29 06:19:23;;;;;;;2.30;2.00;;;;;;;;;;5019370;28;20064;-68
2021/06/29 06:21:48;;;;;;;4.32;1.92;;;;;;;;;;5029217;28;20049;-68
2021/06/29 06:24:14;;;;;;;4.40;1.90;;;;;;;;;;5029190;28;20142;-68
2021/06/29 06:26:39;;;;;;;2.00;1.80;;;;;;;;;;5030836;28;20044;-69
2021/06/29 06:29:05;;;;;;;3.85;1.85;;;;;;;;;;5029346;28;20500;-68
2021/06/29 06:31:30;;;;;;;2.40;1.83;;;;;;;;;;5012144;28;20022;-68
2021/06/29 06:33:56;;;;;;;1.70;1.60;;;;;;;;;;5031102;28;20045;-68
2021/06/29 06:36:21;;;;;;;2.17;1.85;;;;;;;;;;5013428;28;20718;-68
2021/06/29 06:38:47;;;;;;;2.75;1.67;;;;;;;;;;5029285;28;20390;-68
2021/06/29 06:41:15;;;;;;;2.22;1.92;;;;;;;;;;5046029;28;20033;-68
2021/06/29 06:43:44;;;;;;;1.75;1.60;;;;;;;;;;5029576;28;20064;-68
2021/06/29 06:46:10;;;;;;;2.08;1.83;;;;;;;;;;5029830;28;20026;-68
2021/06/29 06:48:37;;;;;;;4.07;1.80;;;;;;;;;;5030235;28;20818;-68
2021/06/29 06:51:03;;;;;;;4.45;1.92;;;;;;;;;;5028750;28;21223;-68
2021/06/29 06:53:29;;;;;;;2.03;1.80;;;;;;;;;;5021198;28;20065;-68
2021/06/29 06:55:54;;;;;;;4.50;2.15;;;;;;;;;;5029652;28;20050;-69
2021/06/29 06:58:20;;;;;;;2.85;1.88;;;;;;;;;;5031104;28;20625;-69
2021/06/29 07:00:45;;;;;;;4.18;1.83;;;;;;;;;;5030010;28;20033;-68
2021/06/29 07:03:11;;;;;;;2.50;1.80;;;;;;;;;;5030589;28;20438;-68
2021/06/29 07:05:36;;;;;;;2.20;1.90;;;;;;;;;;5029887;28;20525;-69
2021/06/29 07:08:02;;;;;;;2.17;1.70;;;;;;;;;;5029312;28;20460;-68
2021/06/29 07:10:28;;;;;;;3.42;1.77;;;;;;;;;;5030898;28;20354;-68
2021/06/29 07:12:53;;;;;;;2.00;1.63;;;;;;;;;;5045504;28;20026;-69
2021/06/29 07:15:21;;;;;;;2.17;1.60;;;;;;;;;;5030306;28;20085;-68
2021/06/29 07:17:46;;;;;;;2.10;1.55;;;;;;;;;;5045804;28;20034;-68
2021/06/29 07:20:12;;;;;;;1.73;1.60;;;;;;;;;;5031503;28;20543;-68
2021/06/29 07:22:38;;;;;;;2.08;1.80;;;;;;;;;;5034037;28;20421;-68
2021/06/29 07:25:05;;;;;;;1.40;1.30;;;;;;;;;;5032371;28;20074;-68
2021/06/29 07:27:31;;;;;;;2.00;1.80;;;;;;;;;;5032460;28;20049;-69
2021/06/29 07:29:56;;;;;;;1.90;1.70;;;;;;;;;;5025132;28;20028;-69
2021/06/29 07:32:22;;;;;;;2.60;1.80;;;;;;;;;;5034404;28;20037;-69
2021/06/29 07:34:47;;;;;;;3.83;1.65;;;;;;;;;;5033457;28;20050;-69
2021/06/29 07:37:13;;;;;;;2.00;1.77;;;;;;;;;;5030689;28;20121;-69
2021/06/29 07:39:38;;;;;;;1.98;1.63;;;;;;;;;;5025424;28;20056;-69
2021/06/29 07:42:04;;;;;;;2.40;1.52;;;;;;;;;;5018754;28;20045;-69
2021/06/29 07:44:30;;;;;;;2.33;1.67;;;;;;;;;;5033292;28;20336;-69
2021/06/29 07:46:58;;;;;;;2.42;1.75;;;;;;;;;;5017472;28;20040;-69
2021/06/29 07:49:24;;;;;;;1.83;1.55;;;;;;;;;;5033789;28;20045;-69
2021/06/29 07:51:51;;;;;;;1.85;1.40;;;;;;;;;;5011303;28;20048;-69
2021/06/29 07:54:18;;;;;;;1.30;1.20;;;;;;;;;;5018222;28;20111;-68
2021/06/29 07:56:43;;;;;;;1.67;1.30;;;;;;;;;;5033004;28;20038;-70
2021/06/29 07:59:09;;;;;;;1.40;1.30;;;;;;;;;;5024647;28;20029;-68
2021/06/29 08:01:34;;;;;;;1.65;1.55;;;;;;;;;;5031542;28;20128;-68
2021/06/29 08:04:00;;;;;;;2.03;1.67;;;;;;;;;;5033489;28;20060;-68
2021/06/29 08:06:25;;;;;;;2.78;1.73;;;;;;;;;;5001204;28;20088;-67
2021/06/29 08:08:50;;;;;;;2.55;1.67;;;;;;;;;;5048151;28;20041;-68
2021/06/29 08:11:16;;;;;;;2.35;1.90;;;;;;;;;;5016974;28;20033;-68
2021/06/29 08:13:41;;;;;;;1.70;1.40;;;;;;;;;;5031653;28;20053;-68
2021/06/29 08:16:08;;;;;;;1.40;1.30;;;;;;;;;;5031428;28;20043;-67
2021/06/29 08:18:34;;;;;;;1.70;1.60;;;;;;;;;;5032147;28;20042;-68
2021/06/29 08:21:00;;;;;;;1.52;1.42;;;;;;;;;;5023970;28;20501;-68
2021/06/29 08:23:27;;;;;;;2.20;1.60;;;;;;;;;;5046657;28;20038;-68
2021/06/29 08:25:52;;;;;;;1.63;1.50;;;;;;;;;;5046640;28;20125;-68
2021/06/29 08:28:18;;;;;;;2.55;1.50;;;;;;;;;;5013914;28;20076;-68
2021/06/29 08:30:44;;;;;;;1.77;1.60;;;;;;;;;;5049663;28;20104;-68
2021/06/29 08:33:13;;;;;;;1.63;1.52;;;;;;;;;;5015222;28;20107;-68
2021/06/29 08:35:40;;;;;;;1.75;1.50;;;;;;;;;;5013777;28;20485;-68
2021/06/29 08:38:06;;;;;;;1.67;1.42;;;;;;;;;;5040195;28;20033;-68
2021/06/29 08:40:35;;;;;;;2.20;1.50;;;;;;;;;;5032551;28;20034;-68
2021/06/29 08:43:00;;;;;;;1.58;1.48;;;;;;;;;;5031196;28;20026;-68
2021/06/29 08:45:26;;;;;;;1.65;1.50;;;;;;;;;;5022300;28;20053;-68
2021/06/29 08:47:51;;;;;;;1.70;1.48;;;;;;;;;;5017278;28;20455;-68
2021/06/29 08:50:18;;;;;;;2.03;1.60;;;;;;;;;;5017400;28;20053;-68
2021/06/29 08:52:44;;;;;;;1.90;1.50;;;;;;;;;;5030414;28;20032;-68
2021/06/29 08:55:11;;;;;;;1.73;1.45;;;;;;;;;;5031686;28;20528;-68
2021/06/29 08:57:37;;;;;;;1.80;1.55;;;;;;;;;;5030907;28;20160;-68
2021/06/29 09:00:08;;;;;;;2.30;1.55;;;;;;;;;;5032758;28;20767;-68
2021/06/29 09:02:38;;;;;;;2.15;1.40;;;;;;;;;;5024207;28;20173;-68
2021/06/29 09:05:17;;;;;;;1.63;1.38;;;;;;;;;;5032492;28;20592;-67
2021/06/29 09:07:44;;;;;;;2.58;1.45;;;;;;;;;;5023609;28;20037;-68
2021/06/29 09:10:10;;;;;;;1.55;1.40;;;;;;;;;;5016829;28;20475;-69
2021/06/29 09:12:41;;;;;;;1.88;1.50;;;;;;;;;;5017313;28;20034;-67
2021/06/29 09:15:23;;;;;;;2.58;1.38;;;;;;;;;;5045062;28;20084;-67
2021/06/29 09:17:49;;;;;;;1.88;1.67;;;;;;;;;;5031793;28;20495;-68
2021/06/29 09:20:15;;;;;;;1.92;1.70;;;;;;;;;;5030753;28;20034;-68
2021/06/29 09:22:40;;;;;;;1.88;1.50;;;;;;;;;;5031525;28;20593;-69
2021/06/29 09:25:29;;;;;;;2.05;1.60;;;;;;;;;;5032154;28;20044;-68
2021/06/29 09:27:57;;;;;;;1.98;1.63;;;;;;;;;;5030321;28;20494;-69
2021/06/29 09:30:42;;;;;;;1.50;1.40;;;;;;;;;;5006232;28;20072;-69
2021/06/29 09:33:21;;;;;;;2.75;1.83;;;;;;;;;;5031440;28;20049;-69
2021/06/29 09:35:55;;;;;;;1.65;1.50;;;;;;;;;;5030833;28;20046;-69
2021/06/29 09:38:27;;;;;;;1.67;1.50;;;;;;;;;;5029681;28;20034;-68
2021/06/29 09:41:07;;;;;;;2.55;1.58;;;;;;;;;;5048009;28;20037;-68
2021/06/29 09:43:38;;;;;;;1.65;1.55;;;;;;;;;;5032672;28;20030;-68
2021/06/29 09:46:06;;;;;;;2.05;1.48;;;;;;;;;;5030539;28;20112;-69
2021/06/29 09:48:45;;;;;;;1.60;1.50;;;;;;;;;;5029578;28;20521;-68
2021/06/29 09:51:31;;;;;;;1.50;1.35;;;;;;;;;;5031804;28;20050;-68
2021/06/29 09:54:05;;;;;;;1.88;1.40;;;;;;;;;;5020937;28;20414;-68
2021/06/29 09:56:41;;;;;;;1.52;1.42;;;;;;;;;;5023089;28;20057;-69
2021/06/29 09:59:15;;;;;;;2.08;1.38;;;;;;;;;;5031958;28;20127;-68
2021/06/29 10:01:41;;;;;;;1.85;1.60;;;;;;;;;;5017054;28;20040;-69
2021/06/29 10:04:07;;;;;;;2.65;1.70;;;;;;;;;;5031324;28;20061;-69
2021/06/29 10:06:34;;;;;;;1.73;1.40;;;;;;;;;;5030870;28;20044;-69
2021/06/29 10:09:07;;;;;;;1.40;1.30;;;;;;;;;;5045508;28;20077;-69
2021/06/29 10:11:34;;;;;;;1.40;1.30;;;;;;;;;;5030884;28;20034;-69
2021/06/29 10:14:02;;;;;;;2.10;1.65;;;;;;;;;;5031131;28;20033;-68
2021/06/29 10:16:31;;;;;;;1.92;1.50;;;;;;;;;;5013730;28;20045;-68
2021/06/29 10:21:24;;;;;;;1.80;1.60;;;;;;;;;;5029874;28;20042;-69
2021/06/29 10:23:54;;;;;;;1.90;1.73;;;;;;;;;;5031448;28;20451;-68
2021/06/29 10:26:22;;;;;;;2.30;1.70;;;;;;;;;;5030195;28;20038;-68
2021/06/29 10:28:49;;;;;;;1.83;1.50;;;;;;;;;;5029825;28;20262;-69
2021/06/29 10:31:17;;;;;;;1.92;1.50;;;;;;;;;;5011063;28;20041;-68
2021/06/29 10:33:43;;;;;;;2.03;1.50;;;;;;;;;;5030528;28;20068;-69
2021/06/29 10:36:08;;;;;;;2.38;1.60;;;;;;;;;;5029645;28;20054;-68
2021/06/29 10:38:34;;;;;;;1.70;1.38;;;;;;;;;;5019967;28;20037;-68
2021/06/29 10:41:00;;;;;;;1.90;1.70;;;;;;;;;;5014470;28;20044;-68
2021/06/29 10:43:26;;;;;;;2.00;1.52;;;;;;;;;;5017354;28;20317;-68
2021/06/29 10:45:52;;;;;;;1.95;1.65;;;;;;;;;;5022630;28;20040;-68
2021/06/29 10:48:21;;;;;;;1.58;1.40;;;;;;;;;;5013947;28;20180;-68
2021/06/29 10:50:47;;;;;;;1.90;1.55;;;;;;;;;;5044334;28;20025;-68
2021/06/29 10:53:41;;;;;;;1.60;1.50;;;;;;;;;;5021781;28;20225;-68
2021/06/29 10:56:17;;;;;;;1.85;1.70;;;;;;;;;;5028311;28;20046;-68
2021/06/29 10:58:48;;;;;;;2.13;1.80;;;;;;;;;;5038647;28;20559;-68
2021/06/29 11:01:34;;;;;;;2.03;1.80;;;;;;;;;;5030456;28;20942;-68
2021/06/29 11:04:04;;;;;;;2.35;1.80;;;;;;;;;;5030398;28;20675;-68
2021/06/29 11:06:32;;;;;;;2.10;1.83;;;;;;;;;;5014795;28;20064;-68
2021/06/29 11:08:59;;;;;;;1.90;1.70;;;;;;;;;;5011116;28;20041;-68
2021/06/29 11:11:29;;;;;;;2.15;1.75;;;;;;;;;;5028821;28;20109;-69
2021/06/29 11:13:55;;;;;;;1.95;1.80;;;;;;;;;;5028859;28;20128;-69
2021/06/29 11:16:56;;;;;;;2.22;1.90;;;;;;;;;;5015992;28;20046;-69
2021/06/29 11:19:22;;;;;;;2.40;2.00;;;;;;;;;;5030422;28;20509;-66
2021/06/29 11:21:47;;;;;;;2.00;1.70;;;;;;;;;;5011016;28;20092;-66
2021/06/29 11:24:36;;;;;;;3.45;2.35;;;;;;;;;;5029577;28;20106;-65
2021/06/29 11:27:02;;;;;;;1.90;1.80;;;;;;;;;;5029032;28;20088;-65
2021/06/29 11:29:38;;;;;;;1.95;1.85;;;;;;;;;;5029339;28;20509;-68
2021/06/29 11:32:26;;;;;;;2.83;2.22;;;;;;;;;;5029701;28;20034;-66
2021/06/29 11:34:51;;;;;;;2.05;1.70;;;;;;;;;;5027663;28;20042;-66
2021/06/29 11:37:17;;;;;;;1.90;1.80;;;;;;;;;;5029541;28;20034;-65
2021/06/29 11:39:42;;;;;;;2.20;2.00;;;;;;;;;;5014993;28;20086;-64
2021/06/29 11:42:19;;;;;;;1.98;1.77;;;;;;;;;;5029642;28;20634;-63
2021/06/29 11:44:48;;;;;;;2.47;1.80;;;;;;;;;;5042997;28;20129;-65
2021/06/29 11:47:16;;;;;;;2.58;2.30;;;;;;;;;;5027990;28;20127;-66
2021/06/29 11:49:47;;;;;;;2.80;2.50;;;;;;;;;;5030002;28;20052;-65
2021/06/29 11:52:17;;;;;;;3.03;2.67;;;;;;;;;;5030565;28;20574;-66
2021/06/29 11:54:50;;;;;;;3.42;2.50;;;;;;;;;;5029489;28;20029;-66
2021/06/29 11:57:21;;;;;;;2.85;2.53;;;;;;;;;;5028388;28;20041;-65
2021/06/29 11:59:48;;;;;;;2.42;2.22;;;;;;;;;;5029863;28;20040;-66
2021/06/29 12:02:19;;;;;;;2.85;2.65;;;;;;;;;;5015368;28;20037;-65
2021/06/29 12:05:13;;;;;;;2.67;2.47;;;;;;;;;;5040653;28;20034;-66
2021/06/29 12:07:40;;;;;;;3.60;2.28;;;;;;;;;;5020333;28;20042;-66
2021/06/29 12:10:13;;;;;;;3.17;2.50;;;;;;;;;;5032733;28;20059;-66
2021/06/29 12:12:42;;;;;;;2.97;2.60;;;;;;;;;;5046548;28;20093;-66
2021/06/29 12:15:16;;;;;;;2.40;2.20;;;;;;;;;;5031375;28;20045;-66
2021/06/29 12:17:53;;;;;;;2.50;2.30;;;;;;;;;;5046293;28;20353;-66
2021/06/29 12:20:21;;;;;;;2.65;2.42;;;;;;;;;;5033930;28;20037;-66
2021/06/29 12:22:48;;;;;;;2.50;2.30;;;;;;;;;;5032907;28;20037;-65
2021/06/29 12:25:23;;;;;;;2.10;1.90;;;;;;;;;;5032698;28;20061;-65
2021/06/29 12:28:12;;;;;;;2.10;1.90;;;;;;;;;;5032326;28;20120;-65
2021/06/29 12:30:45;;;;;;;2.20;2.00;;;;;;;;;;5032567;28;20030;-65
2021/06/29 12:33:38;;;;;;;2.15;2.00;;;;;;;;;;5032642;28;20033;-66
2021/06/29 12:36:11;;;;;;;1.95;1.85;;;;;;;;;;5029224;28;20050;-66
2021/06/29 12:38:49;;;;;;;1.65;1.55;;;;;;;;;;5014063;28;20072;-66
2021/06/29 12:41:20;;;;;;;1.90;1.70;;;;;;;;;;5030457;28;20121;-66
2021/06/29 12:43:46;;;;;;;1.70;1.60;;;;;;;;;;5012160;28;20037;-66
2021/06/29 12:46:18;;;;;;;1.70;1.33;;;;;;;;;;5033738;28;20041;-66
2021/06/29 12:49:04;;;;;;;1.20;0.90;;;;;;;;;;5032255;28;20034;-66
2021/06/29 12:51:33;;;;;;;1.20;1.08;;;;;;;;;;5032390;28;20044;-67
2021/06/29 12:54:00;;;;;;;1.38;1.27;;;;;;;;;;5017155;28;20863;-66
2021/06/29 12:56:32;;;;;;;1.20;1.10;;;;;;;;;;5012731;28;20521;-66
2021/06/29 12:58:58;;;;;;;0.90;0.90;;;;;;;;;;5030358;28;20050;-66
2021/06/29 13:01:24;;;;;;;0.85;0.85;;;;;;;;;;5031372;28;20210;-66
2021/06/29 13:03:55;;;;;;;0.70;0.70;;;;;;;;;;5016064;28;20025;-66
2021/06/29 13:06:22;;;;;;;0.70;0.70;;;;;;;;;;5018366;28;20105;-66
2021/06/29 13:08:48;;;;;;;0.88;0.88;;;;;;;;;;5013049;28;20466;-66
2021/06/29 13:11:16;;;;;;;1.23;0.80;;;;;;;;;;5029633;28;20044;-66
2021/06/29 13:13:56;;;;;;;0.70;0.60;;;;;;;;;;5045799;28;20046;-66
2021/06/29 13:16:22;;;;;;;0.65;0.65;;;;;;;;;;5032725;28;20041;-66
2021/06/29 13:18:48;;;;;;;0.60;0.60;;;;;;;;;;5031039;28;20529;-66
2021/06/29 13:21:17;;;;;;;0.55;0.55;;;;;;;;;;5032159;28;20858;-66
2021/06/29 13:24:03;;;;;;;0.60;0.60;;;;;;;;;;5017468;28;20561;-66
2021/06/29 13:26:31;;;;;;;0.50;0.50;;;;;;;;;;5023773;28;20064;-66
2021/06/29 13:28:58;;;;;;;0.70;0.70;;;;;;;;;;5046500;28;20117;-66
2021/06/29 13:31:26;;;;;;;0.60;0.60;;;;;;;;;;5016259;28;20041;-66
2021/06/29 13:33:51;;;;;;;0.85;0.80;;;;;;;;;;5012003;28;20120;-66
2021/06/29 13:36:17;;;;;;;0.52;0.52;;;;;;;;;;5030189;28;20093;-66
2021/06/29 13:38:53;;;;;;;0.70;0.70;;;;;;;;;;5012436;28;20037;-66
2021/06/29 13:41:35;;;;;;;0.52;0.52;;;;;;;;;;5031490;28;20029;-66
2021/06/29 13:44:14;;;;;;;0.65;0.65;;;;;;;;;;5002030;28;20478;-66
2021/06/29 13:46:41;;;;;;;0.65;0.65;;;;;;;;;;5014328;28;20049;-66
2021/06/29 13:49:22;;;;;;;1.13;0.70;;;;;;;;;;5046038;28;20134;-66
2021/06/29 13:51:48;;;;;;;0.65;0.65;;;;;;;;;;5021710;28;20298;-66
2021/06/29 13:54:23;;;;;;;0.68;0.68;;;;;;;;;;5029086;28;20057;-66
2021/06/29 13:56:49;;;;;;;0.65;0.65;;;;;;;;;;5015731;28;20033;-66
2021/06/29 13:59:37;;;;;;;0.60;0.60;;;;;;;;;;5029978;28;20037;-66
2021/06/29 14:02:04;;;;;;;0.60;0.60;;;;;;;;;;5015617;28;20142;-66
2021/06/29 14:04:29;;;;;;;1.00;0.63;;;;;;;;;;5030117;28;20043;-66
2021/06/29 14:07:11;;;;;;;0.80;0.80;;;;;;;;;;5030901;28;20044;-66
2021/06/29 14:09:37;;;;;;;0.70;0.70;;;;;;;;;;5029910;28;20037;-66
2021/06/29 14:12:04;;;;;;;0.77;0.63;;;;;;;;;;5022008;28;20037;-66
2021/06/29 14:14:31;;;;;;;0.70;0.70;;;;;;;;;;5019698;28;20046;-66
2021/06/29 14:16:57;;;;;;;1.08;0.77;;;;;;;;;;5030066;28;20569;-66
2021/06/29 14:19:24;;;;;;;0.60;0.60;;;;;;;;;;5031245;28;20033;-65
2021/06/29 14:21:50;;;;;;;0.70;0.70;;;;;;;;;;5028896;28;20040;-66
2021/06/29 14:24:16;;;;;;;0.77;0.70;;;;;;;;;;5044914;28;20043;-66
2021/06/29 14:26:42;;;;;;;0.60;0.60;;;;;;;;;;5033173;28;20657;-66
2021/06/29 14:29:07;;;;;;;0.50;0.50;;;;;;;;;;5030593;28;20044;-66
2021/06/29 14:31:33;;;;;;;0.80;0.80;;;;;;;;;;5013262;28;20040;-66
2021/06/29 14:33:59;;;;;;;0.68;0.65;;;;;;;;;;5030840;28;20045;-67
2021/06/29 14:36:24;;;;;;;0.77;0.77;;;;;;;;;;5032043;28;20045;-65
2021/06/29 14:38:50;;;;;;;1.73;0.93;;;;;;;;;;5030947;28;20026;-65
2021/06/29 14:41:17;;;;;;;0.80;0.80;;;;;;;;;;5043727;28;20448;-66
2021/06/29 14:43:42;;;;;;;0.80;0.80;;;;;;;;;;5013842;28;20597;-66
2021/06/29 14:46:08;;;;;;;0.85;0.82;;;;;;;;;;5031014;28;20026;-66
2021/06/29 14:48:34;;;;;;;6.10;1.70;;;;;;;;;;5032415;28;20077;-66
2021/06/29 14:51:00;;;;;;;8.27;1.92;;;;;;;;;;5030324;28;20582;-66
2021/06/29 14:53:25;;;;;;;5.18;1.40;;;;;;;;;;5028122;28;20046;-66
2021/06/29 14:55:51;;;;;;;2.88;0.80;;;;;;;;;;5014037;28;20108;-66